createdAt,value
2019-02-05T00:01:37.282Z,99.90
2019-02-05T00:04:05.646Z,99.90
2019-02-05T00:06:33.325Z,99.70
2019-02-05T00:09:01.474Z,99.90
2019-02-05T00:11:29.386Z,99.90
2019-02-05T00:13:56.942Z,99.90
2019-02-05T00:16:24.800Z,99.90
2019-02-05T00:18:52.632Z,99.90
2019-02-05T00:21:21.266Z,99.90
2019-02-05T00:23:49.353Z,99.90
2019-02-05T00:26:18.244Z,99.90
2019-02-05T00:28:46.242Z,99.90
2019-02-05T00:31:14.514Z,99.50
2019-02-05T00:33:42.567Z,99.90
2019-02-05T00:36:10.749Z,99.90
2019-02-05T00:38:38.774Z,99.30
2019-02-05T00:41:06.722Z,99.90
2019-02-05T00:43:34.960Z,99.90
2019-02-05T00:46:02.915Z,99.50
2019-02-05T00:48:31.363Z,99.90
2019-02-05T00:50:59.513Z,99.90
2019-02-05T00:53:27.439Z,99.90
2019-02-05T00:55:56.497Z,99.90
2019-02-05T00:58:24.938Z,99.90
2019-02-05T01:00:53.249Z,99.90
2019-02-05T01:03:22.448Z,99.90
2019-02-05T01:05:50.827Z,99.90
2019-02-05T01:08:18.907Z,99.90
2019-02-05T01:10:48.090Z,99.90
2019-02-05T01:13:16.217Z,97.90
2019-02-05T01:15:44.268Z,99.60
2019-02-05T01:18:12.736Z,98.70
2019-02-05T01:20:40.899Z,99.90
2019-02-05T01:23:09.019Z,99.80
2019-02-05T01:25:37.273Z,99.90
2019-02-05T01:28:05.258Z,99.90
2019-02-05T01:30:32.756Z,99.90
2019-02-05T01:33:00.738Z,99.90
2019-02-05T01:35:28.598Z,96.20
2019-02-05T01:37:56.604Z,99.90
2019-02-05T01:40:25.621Z,97.20
2019-02-05T01:42:54.170Z,99.90
2019-02-05T01:45:22.778Z,95.40
2019-02-05T01:47:50.785Z,97.20
2019-02-05T01:50:24.001Z,99.90
2019-02-05T01:52:51.625Z,97.00
2019-02-05T01:55:21.018Z,99.50
2019-02-05T01:57:49.234Z,98.10
2019-02-05T02:00:24.685Z,99.90
2019-02-05T02:02:52.507Z,99.90
2019-02-05T02:05:20.553Z,96.50
2019-02-05T02:07:48.548Z,95.60
2019-02-05T02:10:19.163Z,94.00
2019-02-05T02:12:47.292Z,94.70
2019-02-05T02:15:15.135Z,95.90
2019-02-05T02:17:43.278Z,97.20
2019-02-05T02:20:13.403Z,99.90
2019-02-05T02:22:41.257Z,98.70
2019-02-05T02:25:09.162Z,98.90
2019-02-05T02:27:38.322Z,99.90
2019-02-05T02:30:11.162Z,98.10
2019-02-05T02:32:39.664Z,96.20
2019-02-05T02:35:07.958Z,97.50
2019-02-05T02:37:36.162Z,99.90
2019-02-05T02:40:05.053Z,99.90
2019-02-05T02:42:32.753Z,98.70
2019-02-05T02:45:04.438Z,99.90
2019-02-05T02:47:32.523Z,98.80
2019-02-05T02:50:00.602Z,97.50
2019-02-05T02:52:28.890Z,99.10
2019-02-05T02:54:58.096Z,96.10
2019-02-05T02:57:29.476Z,95.20
2019-02-05T02:59:57.849Z,97.30
2019-02-05T03:02:34.911Z,94.50
2019-02-05T03:05:07.220Z,97.40
2019-02-05T03:07:35.082Z,99.90
2019-02-05T03:10:04.920Z,99.90
2019-02-05T03:17:43.858Z,99.90
2019-02-05T03:20:12.891Z,99.90
2019-02-05T03:22:41.105Z,99.90
2019-02-05T03:25:11.100Z,97.10
2019-02-05T03:27:39.521Z,96.20
2019-02-05T03:30:10.534Z,95.10
2019-02-05T03:32:38.303Z,99.90
2019-02-05T03:35:06.723Z,94.50
2019-02-05T03:37:34.475Z,95.50
2019-02-05T03:40:02.473Z,96.60
2019-02-05T03:42:31.431Z,98.00
2019-02-05T03:45:02.572Z,99.90
2019-02-05T03:47:30.245Z,95.30
2019-02-05T03:50:00.440Z,93.60
2019-02-05T03:52:39.607Z,96.10
2019-02-05T03:55:34.572Z,97.40
2019-02-05T03:58:39.315Z,99.60
2019-02-05T04:01:37.386Z,97.90
2019-02-05T04:05:02.237Z,94.50
2019-02-05T04:07:56.122Z,98.60
2019-02-05T04:11:10.447Z,99.90
2019-02-05T04:14:16.692Z,97.50
2019-02-05T04:17:11.362Z,99.70
2019-02-05T04:20:34.476Z,99.90
2019-02-05T04:23:32.623Z,99.90
2019-02-05T04:26:45.406Z,99.90
2019-02-05T04:29:37.656Z,98.90
2019-02-05T04:32:13.816Z,94.30
2019-02-05T04:35:17.779Z,99.90
2019-02-05T04:38:28.561Z,98.60
2019-02-05T04:41:48.290Z,99.90
2019-02-05T04:44:38.713Z,99.90
2019-02-05T04:48:06.230Z,98.00
2019-02-05T04:50:52.753Z,99.90
2019-02-05T04:53:45.486Z,96.80
2019-02-05T04:56:55.242Z,93.80
2019-02-05T05:00:13.829Z,96.90
2019-02-05T05:03:15.042Z,96.00
2019-02-05T05:06:20.114Z,99.90
2019-02-05T05:09:13.294Z,97.10
2019-02-05T05:11:41.346Z,98.00
2019-02-05T05:14:08.796Z,96.40
2019-02-05T05:16:36.672Z,94.90
2019-02-05T05:19:04.696Z,94.50
2019-02-05T05:21:32.441Z,97.30
2019-02-05T05:24:00.468Z,98.50
2019-02-05T05:26:28.693Z,94.80
2019-02-05T05:28:56.211Z,99.90
2019-02-05T05:31:23.906Z,96.70
2019-02-05T05:33:51.846Z,96.10
2019-02-05T05:36:19.985Z,97.00
2019-02-05T05:38:47.401Z,97.90
2019-02-05T05:41:15.553Z,99.90
2019-02-05T05:43:43.303Z,99.10
2019-02-05T05:46:10.756Z,95.60
2019-02-05T05:48:38.844Z,99.90
2019-02-05T05:51:06.520Z,98.90
2019-02-05T05:53:34.327Z,97.40
2019-02-05T05:56:01.994Z,96.70
2019-02-05T05:58:29.491Z,99.90
2019-02-05T06:00:57.131Z,95.10
2019-02-05T06:03:24.920Z,98.10
2019-02-05T06:05:52.430Z,98.80
2019-02-05T06:08:19.978Z,99.70
2019-02-05T06:10:47.563Z,99.70
2019-02-05T06:13:15.457Z,90.20
2019-02-05T06:15:43.009Z,99.80
2019-02-05T06:18:10.756Z,90.70
2019-02-05T06:20:38.258Z,88.80
2019-02-05T06:23:05.730Z,90.00
2019-02-05T06:25:33.245Z,91.80
2019-02-05T06:28:01.261Z,94.00
2019-02-05T06:30:28.771Z,94.10
2019-02-05T06:32:56.609Z,92.90
2019-02-05T06:35:24.153Z,99.90
2019-02-05T06:37:52.205Z,95.40
2019-02-05T06:40:20.599Z,95.50
2019-02-05T06:42:48.081Z,92.80
2019-02-05T06:45:15.881Z,92.40
2019-02-05T06:47:43.647Z,94.00
2019-02-05T06:50:11.346Z,97.10
2019-02-05T06:52:40.401Z,95.40
2019-02-05T06:55:09.091Z,92.00
2019-02-05T06:57:36.773Z,93.90
2019-02-05T07:00:07.139Z,92.70
2019-02-05T07:02:34.647Z,91.30
2019-02-05T07:05:02.393Z,91.40
2019-02-05T07:07:29.975Z,99.80
2019-02-05T07:09:57.867Z,99.20
2019-02-05T07:12:25.817Z,95.00
2019-02-05T07:14:53.401Z,95.40
2019-02-05T07:17:21.016Z,94.70
2019-02-05T07:19:49.200Z,90.30
2019-02-05T07:22:16.698Z,91.10
2019-02-05T07:24:44.621Z,93.90
2019-02-05T07:27:12.258Z,95.20
2019-02-05T07:29:39.765Z,95.70
2019-02-05T07:32:07.841Z,96.50
2019-02-05T07:34:36.010Z,94.60
2019-02-05T07:37:03.913Z,94.90
2019-02-05T07:39:31.575Z,97.40
2019-02-05T07:41:59.161Z,99.90
2019-02-05T07:44:26.742Z,98.10
2019-02-05T07:46:54.645Z,97.60
2019-02-05T07:49:22.531Z,99.90
2019-02-05T07:51:50.180Z,99.90
2019-02-05T07:54:17.877Z,99.90
2019-02-05T07:56:47.868Z,94.20
2019-02-05T07:59:15.838Z,92.50
2019-02-05T08:01:43.765Z,97.70
2019-02-05T08:04:11.761Z,95.40
2019-02-05T08:06:39.936Z,97.30
2019-02-05T08:09:09.707Z,91.00
2019-02-05T08:11:37.615Z,90.30
2019-02-05T08:14:06.186Z,91.00
2019-02-05T08:16:34.093Z,98.70
2019-02-05T08:19:02.123Z,91.70
2019-02-05T08:21:29.758Z,94.60
2019-02-05T08:23:57.847Z,94.80
2019-02-05T08:26:25.915Z,95.20
2019-02-05T08:28:53.530Z,91.60
2019-02-05T08:31:21.246Z,88.80
2019-02-05T08:33:49.138Z,87.90
2019-02-05T08:36:16.786Z,91.30
2019-02-05T08:38:44.406Z,91.00
2019-02-05T08:41:12.402Z,86.60
2019-02-05T08:43:39.992Z,89.80
2019-02-05T08:46:07.634Z,86.90
2019-02-05T08:48:35.556Z,91.00
2019-02-05T08:51:03.262Z,91.80
2019-02-05T08:53:31.031Z,95.10
2019-02-05T08:55:59.039Z,96.30
2019-02-05T08:58:31.020Z,94.10
2019-02-05T09:00:56.013Z,87.60
2019-02-05T09:03:23.592Z,90.00
2019-02-05T09:05:51.527Z,92.30
2019-02-05T09:08:19.245Z,85.70
2019-02-05T09:10:46.987Z,82.80
2019-02-05T09:13:15.014Z,82.50
2019-02-05T09:15:42.605Z,85.30
2019-02-05T09:18:10.449Z,84.90
2019-02-05T09:20:38.189Z,88.30
2019-02-05T09:23:05.901Z,85.40
2019-02-05T09:25:34.373Z,86.00
2019-02-05T09:28:02.031Z,84.20
2019-02-05T09:30:31.267Z,89.50
2019-02-05T09:33:00.714Z,81.60
2019-02-05T09:35:28.569Z,81.00
2019-02-05T09:37:57.910Z,89.80
2019-02-05T09:40:27.856Z,77.30
2019-02-05T09:42:55.356Z,86.30
2019-02-05T09:45:23.503Z,82.70
2019-02-05T09:47:51.703Z,92.00
2019-02-05T09:50:20.124Z,90.70
2019-02-05T09:52:47.650Z,76.20
2019-02-05T09:55:15.934Z,74.30
2019-02-05T09:57:44.192Z,73.90
2019-02-05T10:00:26.845Z,76.70
2019-02-05T10:02:55.013Z,69.80
2019-02-05T10:05:23.429Z,72.50
2019-02-05T10:07:51.023Z,74.50
2019-02-05T10:10:19.537Z,76.20
2019-02-05T10:12:47.555Z,79.10
2019-02-05T10:15:26.969Z,69.00
2019-02-05T10:17:54.811Z,77.60
2019-02-05T10:20:32.357Z,80.30
2019-02-05T10:23:02.475Z,76.80
2019-02-05T10:25:31.372Z,78.30
2019-02-05T10:27:59.703Z,72.30
2019-02-05T10:30:32.321Z,75.40
2019-02-05T10:33:01.692Z,72.00
2019-02-05T10:35:29.655Z,68.80
2019-02-05T10:37:57.803Z,85.80
2019-02-05T10:40:27.865Z,69.40
2019-02-05T10:42:57.903Z,66.30
2019-02-05T10:45:29.081Z,65.00
2019-02-05T10:47:56.677Z,66.90
2019-02-05T10:50:24.425Z,66.40
2019-02-05T10:52:52.044Z,64.50
2019-02-05T10:55:19.942Z,61.80
2019-02-05T10:57:47.757Z,62.30
2019-02-05T11:00:20.315Z,61.30
2019-02-05T11:02:48.474Z,59.00
2019-02-05T11:05:18.941Z,63.40
2019-02-05T11:07:47.195Z,61.50
2019-02-05T11:10:15.772Z,61.70
2019-02-05T11:12:43.544Z,69.60
2019-02-05T11:15:13.715Z,62.10
2019-02-05T11:17:41.619Z,59.50
2019-02-05T11:20:12.763Z,59.00
2019-02-05T11:22:40.741Z,62.70
2019-02-05T11:25:10.156Z,60.10
2019-02-05T11:27:38.044Z,59.70
2019-02-05T11:30:19.657Z,62.90
2019-02-05T11:32:38.327Z,62.80
2019-02-05T11:35:06.497Z,61.60
2019-02-05T11:37:34.111Z,62.20
2019-02-05T11:40:02.181Z,64.90
2019-02-05T11:42:30.194Z,64.90
2019-02-05T11:44:58.267Z,64.70
2019-02-05T11:47:26.656Z,62.70
2019-02-05T11:49:54.620Z,68.80
2019-02-05T11:52:22.456Z,68.60
2019-02-05T11:54:50.328Z,66.10
2019-02-05T11:57:18.399Z,67.80
2019-02-05T11:59:56.276Z,66.70
2019-02-05T12:02:23.922Z,72.10
2019-02-05T12:04:52.341Z,70.30
2019-02-05T12:07:20.494Z,69.10
2019-02-05T12:09:49.880Z,74.90
2019-02-05T12:12:24.521Z,73.00
2019-02-05T12:14:54.410Z,67.90
2019-02-05T12:17:23.517Z,69.00
2019-02-05T12:19:56.397Z,65.00
2019-02-05T12:22:29.813Z,70.50
2019-02-05T12:25:20.050Z,74.20
2019-02-05T12:28:18.894Z,69.80
2019-02-05T12:31:05.882Z,77.60
2019-02-05T12:33:37.548Z,66.60
2019-02-05T12:36:08.963Z,67.50
2019-02-05T12:38:44.054Z,72.10
2019-02-05T12:41:15.813Z,70.00
2019-02-05T12:43:47.881Z,81.60
2019-02-05T12:46:18.922Z,77.50
2019-02-05T12:49:26.555Z,80.30
2019-02-05T12:51:59.324Z,90.10
2019-02-05T12:54:48.767Z,84.50
2019-02-05T12:57:25.747Z,71.60
2019-02-05T12:59:55.495Z,62.90
2019-02-05T13:02:33.088Z,59.90
2019-02-05T13:05:00.674Z,60.70
2019-02-05T13:07:28.479Z,62.60
2019-02-05T13:10:01.221Z,75.40
2019-02-05T13:12:29.542Z,62.50
2019-02-05T13:14:57.685Z,64.00
2019-02-05T13:17:25.268Z,67.60
2019-02-05T13:19:52.934Z,68.60
2019-02-05T13:22:24.745Z,82.10
2019-02-05T13:24:52.604Z,72.40
2019-02-05T13:27:20.290Z,67.00
2019-02-05T13:29:48.270Z,66.30
2019-02-05T13:32:15.842Z,64.90
2019-02-05T13:34:43.467Z,76.40
2019-02-05T13:37:13.205Z,69.60
2019-02-05T13:39:41.277Z,72.70
2019-02-05T13:42:09.253Z,72.00
2019-02-05T13:44:36.773Z,81.70
2019-02-05T13:47:04.613Z,80.40
2019-02-05T13:49:32.313Z,72.30
2019-02-05T13:52:00.107Z,74.40
2019-02-05T13:54:27.864Z,72.80
2019-02-05T13:56:55.789Z,77.40
2019-02-05T13:59:23.669Z,77.80
2019-02-05T14:01:51.420Z,87.40
2019-02-05T14:04:19.084Z,88.40
2019-02-05T14:06:46.645Z,72.40
2019-02-05T14:09:14.580Z,77.60
2019-02-05T14:11:42.106Z,73.00
2019-02-05T14:14:10.017Z,77.00
2019-02-05T14:16:37.664Z,73.20
2019-02-05T14:19:05.482Z,77.50
2019-02-05T14:21:33.360Z,71.50
2019-02-05T14:24:00.866Z,76.50
2019-02-05T14:26:28.657Z,75.50
2019-02-05T14:28:56.220Z,76.30
2019-02-05T14:31:31.026Z,77.90
2019-02-05T14:33:53.470Z,83.30
2019-02-05T14:36:21.024Z,79.10
2019-02-05T14:38:48.817Z,82.20
2019-02-05T14:41:16.305Z,79.20
2019-02-05T14:43:43.935Z,79.10
2019-02-05T14:46:13.205Z,83.40
2019-02-05T14:48:40.855Z,85.70
2019-02-05T14:51:08.485Z,83.90
2019-02-05T14:53:36.562Z,89.50
2019-02-05T14:56:04.390Z,91.40
2019-02-05T14:58:31.914Z,87.20
2019-02-05T15:00:59.853Z,84.70
2019-02-05T15:03:27.817Z,90.30
2019-02-05T15:05:55.403Z,88.40
2019-02-05T15:08:23.527Z,90.30
2019-02-05T15:10:51.263Z,90.50
2019-02-05T15:13:18.961Z,94.00
2019-02-05T15:15:47.816Z,91.50
2019-02-05T15:18:17.507Z,90.00
2019-02-05T15:20:46.723Z,91.30
2019-02-05T15:23:14.637Z,91.40
2019-02-05T15:25:43.004Z,92.80
2019-02-05T15:28:10.880Z,94.10
2019-02-05T15:30:39.992Z,96.90
2019-02-05T15:33:23.542Z,93.10
2019-02-05T15:35:55.236Z,93.40
2019-02-05T15:38:23.404Z,94.70
2019-02-05T15:40:51.485Z,86.50
2019-02-05T15:43:19.183Z,86.30
2019-02-05T15:45:46.637Z,87.80
2019-02-05T15:48:14.189Z,92.00
2019-02-05T15:50:42.077Z,94.70
2019-02-05T15:53:09.548Z,96.60
2019-02-05T15:55:37.270Z,98.70
2019-02-05T15:58:04.968Z,97.50
2019-02-05T16:00:34.793Z,90.20
2019-02-05T16:03:02.792Z,89.60
2019-02-05T16:05:30.718Z,99.90
2019-02-05T16:07:58.558Z,95.50
2019-02-05T16:10:26.573Z,94.30
2019-02-05T16:12:54.974Z,97.20
2019-02-05T16:15:23.034Z,98.20
2019-02-05T16:17:50.856Z,91.20
2019-02-05T16:20:18.701Z,91.30
2019-02-05T16:22:46.473Z,94.00
2019-02-05T16:25:15.791Z,96.50
2019-02-05T16:27:43.474Z,94.40
2019-02-05T16:30:14.632Z,88.80
2019-02-05T16:32:42.230Z,87.60
2019-02-05T16:35:10.382Z,90.90
2019-02-05T16:37:38.171Z,94.10
2019-02-05T16:40:14.499Z,93.50
2019-02-05T16:42:42.106Z,97.30
2019-02-05T16:45:12.726Z,99.60
2019-02-05T16:47:40.266Z,98.70
2019-02-05T16:50:20.604Z,95.90
2019-02-05T16:52:49.333Z,96.80
2019-02-05T16:55:18.570Z,99.10
2019-02-05T16:57:46.763Z,99.90
2019-02-05T17:00:20.183Z,98.90
2019-02-05T17:02:47.771Z,99.90
2019-02-05T17:05:16.470Z,97.80
2019-02-05T17:07:44.681Z,99.90
2019-02-05T17:10:13.548Z,98.00
2019-02-05T17:12:41.406Z,96.50
2019-02-05T17:15:10.622Z,96.40
2019-02-05T17:17:38.172Z,96.80
2019-02-05T17:20:08.088Z,99.90
2019-02-05T17:22:35.962Z,97.50
2019-02-05T17:25:05.386Z,96.70
2019-02-05T17:27:33.889Z,99.90
2019-02-05T17:30:01.676Z,97.80
2019-02-05T17:32:39.947Z,99.70
2019-02-05T17:35:04.580Z,99.60
2019-02-05T17:37:32.934Z,97.50
2019-02-05T17:40:03.526Z,99.00
2019-02-05T17:42:31.622Z,99.00
2019-02-05T17:44:59.961Z,99.60
2019-02-05T17:47:27.957Z,99.90
2019-02-05T17:49:56.132Z,99.40
2019-02-05T17:52:24.161Z,99.90
2019-02-05T17:54:58.820Z,99.90
2019-02-05T17:57:29.587Z,99.90
2019-02-05T18:00:02.133Z,99.90
2019-02-05T18:02:31.924Z,99.90
2019-02-05T18:05:11.498Z,99.90
2019-02-05T18:07:45.259Z,99.90
2019-02-05T18:10:20.804Z,99.90
2019-02-05T18:12:58.819Z,99.90
2019-02-05T18:15:34.837Z,99.90
2019-02-05T18:18:02.613Z,99.90
2019-02-05T18:20:30.318Z,99.90
2019-02-05T18:23:06.137Z,99.90
2019-02-05T18:25:34.926Z,99.90
2019-02-05T18:28:02.647Z,99.90
2019-02-05T18:30:31.868Z,99.90
2019-02-05T18:33:03.954Z,99.90
2019-02-05T18:35:31.908Z,99.90
2019-02-05T18:38:00.198Z,99.90
2019-02-05T18:40:39.647Z,99.90
2019-02-05T18:43:07.835Z,99.90
2019-02-05T18:45:41.674Z,99.90
2019-02-05T18:48:09.892Z,99.90
2019-02-05T18:50:41.038Z,99.90
2019-02-05T18:53:11.563Z,99.90
2019-02-05T18:55:38.839Z,99.90
2019-02-05T18:58:09.323Z,99.90
2019-02-05T19:00:40.190Z,99.90
2019-02-05T19:03:15.610Z,99.90
2019-02-05T19:05:39.603Z,99.90
2019-02-05T19:08:08.811Z,99.90
2019-02-05T19:10:36.657Z,99.90
2019-02-05T19:13:04.760Z,99.90
2019-02-05T19:15:34.270Z,99.90
2019-02-05T19:18:02.848Z,99.90
2019-02-05T19:20:32.157Z,99.90
2019-02-05T19:23:00.357Z,99.90
2019-02-05T19:25:40.483Z,99.90
2019-02-05T19:28:09.168Z,99.90
2019-02-05T19:30:38.347Z,99.90
2019-02-05T19:33:11.055Z,99.90
2019-02-05T19:35:39.863Z,99.90
2019-02-05T19:38:14.567Z,99.90
2019-02-05T19:40:42.813Z,99.90
2019-02-05T19:43:11.053Z,99.90
2019-02-05T19:45:52.634Z,99.90
2019-02-05T19:48:29.836Z,99.90
2019-02-05T19:50:58.648Z,99.90
2019-02-05T19:53:27.549Z,99.90
2019-02-05T19:55:56.498Z,99.90
2019-02-05T19:58:27.267Z,99.90
2019-02-05T20:00:56.154Z,99.90
2019-02-05T20:03:24.410Z,99.90
2019-02-05T20:05:52.947Z,99.90
2019-02-05T20:08:26.897Z,99.90
2019-02-05T20:11:04.096Z,99.90
2019-02-05T20:13:40.674Z,99.90
2019-02-05T20:16:12.417Z,99.90
2019-02-05T20:18:40.050Z,99.90
2019-02-05T20:21:07.981Z,99.90
2019-02-05T20:23:40.337Z,99.90
2019-02-05T20:26:13.236Z,99.90
2019-02-05T20:28:45.077Z,99.90
2019-02-05T20:31:23.710Z,99.90
2019-02-05T20:33:51.877Z,99.90
2019-02-05T20:36:19.892Z,99.90
2019-02-05T20:38:50.105Z,99.90
2019-02-05T20:41:18.157Z,99.90
2019-02-05T20:43:49.934Z,99.90
2019-02-05T20:46:23.818Z,99.90
2019-02-05T20:48:52.063Z,99.90
2019-02-05T20:51:22.690Z,99.90
2019-02-05T20:53:53.304Z,99.90
2019-02-05T20:56:21.263Z,99.90
2019-02-05T20:58:51.874Z,99.90
2019-02-05T21:01:21.945Z,99.90
2019-02-05T21:04:00.756Z,99.90
2019-02-05T21:06:20.055Z,99.90
2019-02-05T21:08:55.910Z,99.90
2019-02-05T21:11:28.605Z,99.90
2019-02-05T21:13:56.945Z,99.90
2019-02-05T21:16:25.668Z,99.90
2019-02-05T21:18:56.860Z,99.90
2019-02-05T21:21:24.512Z,99.90
2019-02-05T21:23:56.618Z,99.90
2019-02-05T21:26:25.283Z,99.90
2019-02-05T21:28:58.042Z,99.90
2019-02-05T21:31:25.934Z,99.90
2019-02-05T21:33:53.731Z,99.90
2019-02-05T21:36:22.962Z,99.90
2019-02-05T21:38:51.964Z,99.90
2019-02-05T21:41:20.377Z,99.90
2019-02-05T21:43:49.635Z,99.90
2019-02-05T21:46:17.834Z,99.90
2019-02-05T21:48:45.502Z,99.90
2019-02-05T21:51:16.679Z,99.90
2019-02-05T21:53:46.717Z,99.90
2019-02-05T21:56:14.865Z,99.90
2019-02-05T21:58:43.171Z,99.90
2019-02-05T22:01:14.283Z,99.90
2019-02-05T22:03:47.497Z,99.90
2019-02-05T22:06:16.647Z,99.90
2019-02-05T22:08:44.858Z,99.90
2019-02-05T22:11:23.429Z,99.90
2019-02-05T22:13:52.727Z,99.90
2019-02-05T22:16:35.991Z,99.90
2019-02-05T22:19:10.344Z,99.90
2019-02-05T22:21:49.882Z,99.90
2019-02-05T22:24:28.461Z,99.90
2019-02-05T22:26:58.080Z,99.90
2019-02-05T22:29:26.349Z,99.90
2019-02-05T22:32:06.050Z,99.90
2019-02-05T22:34:39.342Z,99.90
2019-02-05T22:37:04.648Z,99.90
2019-02-05T22:39:36.008Z,99.90
2019-02-05T22:42:05.167Z,99.90
2019-02-05T22:44:32.738Z,99.90
2019-02-05T22:47:00.608Z,99.90
2019-02-05T22:49:28.217Z,99.90
2019-02-05T22:51:56.724Z,99.90
2019-02-05T22:54:24.322Z,99.90
2019-02-05T22:56:53.421Z,99.90
2019-02-05T22:59:21.594Z,99.90
2019-02-05T23:01:54.732Z,99.90
2019-02-05T23:05:09.958Z,99.90
2019-02-05T23:07:37.424Z,99.90
2019-02-05T23:11:03.208Z,99.90
2019-02-05T23:13:22.099Z,99.90
2019-02-05T23:15:56.501Z,99.90
2019-02-05T23:18:24.579Z,99.90
2019-02-05T23:20:54.050Z,99.90
2019-02-05T23:23:21.427Z,99.90
2019-02-05T23:25:48.930Z,99.90
2019-02-05T23:28:16.433Z,99.90
2019-02-05T23:30:44.169Z,99.90
2019-02-05T23:33:12.447Z,99.90
2019-02-05T23:35:39.894Z,99.90
2019-02-05T23:38:07.458Z,99.90
2019-02-05T23:40:34.945Z,99.90
2019-02-05T23:43:02.547Z,99.90
2019-02-05T23:45:30.384Z,99.90
2019-02-05T23:47:58.149Z,99.90
2019-02-05T23:50:26.005Z,99.90
2019-02-05T23:52:53.525Z,99.90
2019-02-05T23:55:21.072Z,99.90
2019-02-05T23:57:48.793Z,99.90
